createdAt,value
2018-12-02T11:30:32.396Z,65.56
2018-12-02T11:33:15.055Z,62.80
2018-12-02T11:35:47.543Z,63.34
2018-12-02T11:38:32.050Z,63.69
2018-12-02T11:41:23.686Z,63.58
2018-12-02T11:44:06.873Z,63.46
2018-12-02T11:50:32.941Z,62.61
2018-12-02T11:50:37.498Z,63.87
2018-12-02T11:53:44.238Z,62.48
2018-12-02T11:57:27.537Z,61.83
2018-12-02T12:01:43.659Z,62.44
2018-12-02T12:03:35.930Z,62.85
2018-12-02T12:06:09.285Z,63.30
2018-12-02T12:08:42.570Z,63.92
2018-12-02T12:11:18.699Z,64.17
2018-12-02T12:13:51.498Z,63.78
2018-12-02T12:16:30.347Z,63.89
2018-12-02T12:19:03.954Z,63.71
2018-12-02T12:22:24.138Z,63.81
2018-12-02T12:25:14.325Z,64.11
2018-12-02T12:29:01.216Z,64.16
2018-12-02T12:31:48.719Z,64.11
2018-12-02T12:34:24.432Z,64.16
2018-12-02T12:37:00.635Z,64.28
2018-12-02T12:39:43.112Z,64.05
2018-12-02T12:42:21.247Z,63.79
2018-12-02T12:45:02.012Z,64.01
2018-12-02T12:47:47.166Z,63.94
2018-12-02T12:50:25.018Z,64.24
2018-12-02T12:53:05.974Z,64.08
2018-12-02T12:55:35.634Z,64.34
2018-12-02T12:58:12.529Z,64.17
2018-12-02T13:00:49.520Z,64.42
2018-12-02T13:03:23.664Z,64.75
2018-12-02T13:05:56.614Z,64.97
2018-12-02T13:08:29.508Z,64.78
2018-12-02T13:11:11.658Z,64.96
2018-12-02T13:13:53.277Z,65.08
2018-12-02T13:16:30.389Z,64.78
2018-12-02T13:19:03.981Z,64.62
2018-12-02T13:21:37.144Z,64.70
2018-12-02T13:24:11.876Z,64.65
2018-12-02T13:26:45.843Z,64.55
2018-12-02T13:29:18.556Z,64.65
2018-12-02T13:31:55.775Z,64.90
2018-12-02T13:34:30.549Z,64.79
2018-12-02T13:37:02.439Z,65.15
2018-12-02T13:39:36.259Z,65.18
2018-12-02T13:42:14.110Z,65.11
2018-12-02T13:44:47.073Z,65.06
2018-12-02T13:47:19.595Z,65.04
2018-12-02T13:49:52.029Z,65.09
2018-12-02T13:52:27.860Z,64.98
2018-12-02T13:55:25.923Z,65.09
2018-12-02T13:58:14.640Z,65.38
2018-12-02T14:00:47.886Z,65.31
2018-12-02T14:03:24.713Z,65.40
2018-12-02T14:05:58.986Z,65.40
2018-12-02T14:09:22.874Z,65.58
2018-12-02T14:11:46.714Z,65.68
2018-12-02T14:14:26.728Z,65.53
2018-12-02T14:17:24.892Z,65.67
2018-12-02T14:23:35.947Z,65.65
2018-12-02T14:26:30.208Z,65.85
2018-12-02T14:29:36.208Z,66.31
2018-12-02T14:32:17.362Z,66.67
2018-12-02T14:34:51.089Z,66.92
2018-12-02T14:37:28.534Z,66.51
2018-12-02T14:39:59.560Z,66.25
2018-12-02T14:42:33.201Z,66.36
2018-12-02T14:45:08.979Z,66.51
2018-12-02T14:47:42.975Z,66.59
2018-12-02T14:50:20.003Z,66.57
2018-12-02T14:53:04.175Z,66.62
2018-12-02T14:55:37.658Z,66.97
2018-12-02T14:58:24.278Z,66.97
2018-12-02T15:00:58.402Z,67.02
2018-12-02T15:03:31.432Z,66.66
2018-12-02T15:06:26.216Z,66.69
2018-12-02T15:09:01.966Z,66.41
2018-12-02T15:11:35.517Z,66.26
2018-12-02T15:14:12.969Z,65.81
2018-12-02T15:16:46.215Z,66.14
2018-12-02T15:19:29.152Z,66.01
2018-12-02T15:22:06.642Z,66.04
2018-12-02T15:24:40.114Z,65.99
2018-12-02T15:27:12.965Z,65.99
2018-12-02T15:29:45.491Z,66.06
2018-12-02T15:32:21.081Z,65.72
2018-12-02T15:34:53.521Z,65.97
2018-12-02T15:37:26.233Z,66.64
2018-12-02T15:39:58.902Z,66.91
2018-12-02T15:42:41.398Z,67.52
2018-12-02T15:45:15.684Z,67.70
2018-12-02T15:47:48.240Z,68.84
2018-12-02T15:50:25.301Z,69.96
2018-12-02T15:52:58.909Z,69.89
2018-12-02T15:55:35.963Z,70.69
2018-12-02T15:58:13.616Z,71.78
2018-12-02T16:00:47.898Z,72.45
2018-12-02T16:03:20.312Z,73.88
2018-12-02T16:05:52.874Z,74.45
2018-12-02T16:08:25.280Z,78.53
2018-12-02T16:11:01.606Z,76.19
2018-12-02T16:13:34.112Z,76.70
2018-12-02T16:16:06.586Z,77.88
2018-12-02T16:18:39.029Z,78.04
2018-12-02T16:21:11.530Z,78.30
2018-12-02T16:23:43.963Z,79.29
2018-12-02T16:26:16.469Z,79.65
2018-12-02T16:28:49.137Z,79.87
2018-12-02T16:31:21.753Z,81.30
2018-12-02T16:33:54.187Z,81.22
2018-12-02T16:36:26.735Z,80.37
2018-12-02T16:38:59.329Z,82.14
2018-12-02T16:41:31.724Z,81.91
2018-12-02T16:44:04.279Z,82.48
2018-12-02T16:46:36.794Z,83.03
2018-12-02T16:49:09.226Z,82.90
2018-12-02T16:51:41.855Z,83.49
2018-12-02T16:54:14.480Z,83.32
2018-12-02T16:56:47.101Z,84.06
2018-12-02T16:59:38.377Z,83.75
2018-12-02T17:02:12.187Z,84.12
2018-12-02T17:04:44.594Z,83.96
2018-12-02T17:07:17.053Z,84.22
2018-12-02T17:09:49.542Z,84.40
2018-12-02T17:12:22.472Z,84.39
2018-12-02T17:14:55.069Z,84.14
2018-12-02T17:17:27.887Z,84.12
2018-12-02T17:20:00.439Z,84.19
2018-12-02T17:22:33.090Z,84.08
2018-12-02T17:25:05.841Z,84.59
2018-12-02T17:27:38.698Z,84.90
2018-12-02T17:30:45.289Z,84.66
2018-12-02T17:33:18.025Z,85.38
2018-12-02T17:35:50.461Z,85.49
2018-12-02T17:38:25.010Z,85.70
2018-12-02T17:40:59.130Z,86.03
2018-12-02T17:43:31.512Z,85.95
2018-12-02T17:46:03.970Z,86.64
2018-12-02T17:48:36.510Z,86.81
2018-12-02T17:51:10.096Z,86.72
2018-12-02T17:53:44.308Z,86.89
2018-12-02T17:56:16.751Z,88.68
2018-12-02T17:58:49.494Z,88.98
2018-12-02T18:01:21.941Z,89.48
2018-12-02T18:03:54.649Z,90.08
2018-12-02T18:06:27.275Z,90.06
2018-12-02T18:08:59.727Z,90.60
2018-12-02T18:11:32.148Z,91.48
2018-12-02T18:14:04.677Z,91.88
2018-12-02T18:16:37.183Z,92.52
2018-12-02T18:19:09.809Z,92.57
2018-12-02T18:21:42.260Z,92.76
2018-12-02T18:24:14.697Z,92.98
2018-12-02T18:26:47.257Z,93.75
2018-12-02T18:29:19.717Z,94.37
2018-12-02T18:31:53.279Z,94.37
2018-12-02T18:34:25.736Z,94.22
2018-12-02T18:36:58.682Z,94.54
2018-12-02T18:39:33.216Z,94.79
2018-12-02T18:42:06.147Z,95.09
2018-12-02T18:44:38.701Z,95.57
2018-12-02T18:47:11.313Z,95.71
2018-12-02T18:49:43.751Z,96.26
2018-12-02T18:52:16.332Z,96.50
2018-12-02T18:54:48.881Z,96.74
2018-12-02T18:57:21.555Z,97.00
2018-12-02T18:59:54.105Z,96.95
2018-12-02T19:02:26.680Z,96.59
2018-12-02T19:04:59.240Z,96.85
2018-12-02T19:07:31.842Z,96.52
2018-12-02T19:10:04.387Z,96.31
2018-12-02T19:12:36.912Z,96.34
2018-12-02T19:15:15.156Z,96.48
2018-12-02T19:17:48.297Z,96.57
2018-12-02T19:20:31.723Z,96.45
2018-12-02T19:23:08.182Z,96.51
2018-12-02T19:25:40.750Z,96.51
2018-12-02T19:28:13.177Z,96.41
2018-12-02T19:30:45.696Z,96.34
2018-12-02T19:33:21.621Z,96.34
2018-12-02T19:35:57.571Z,96.42
2018-12-02T19:38:30.149Z,96.21
2018-12-02T19:41:02.570Z,96.20
2018-12-02T19:43:35.107Z,95.88
2018-12-02T19:46:07.587Z,95.89
2018-12-02T19:48:40.069Z,95.58
2018-12-02T19:51:12.553Z,95.76
2018-12-02T19:53:45.216Z,95.46
2018-12-02T19:56:17.667Z,95.17
2018-12-02T19:58:50.166Z,94.52
2018-12-02T20:01:22.886Z,93.87
2018-12-02T20:03:55.606Z,93.64
2018-12-02T20:06:28.101Z,93.83
2018-12-02T20:09:00.522Z,93.51
2018-12-02T20:11:33.794Z,93.80
2018-12-02T20:14:06.253Z,94.21
2018-12-02T20:16:38.679Z,94.99
2018-12-02T20:19:28.661Z,95.40
2018-12-02T20:22:01.224Z,95.66
2018-12-02T20:24:42.750Z,96.41
2018-12-02T20:27:15.218Z,97.99
2018-12-02T20:29:47.726Z,98.13
2018-12-02T20:32:20.557Z,98.29
2018-12-02T20:34:53.042Z,98.41
2018-12-02T20:37:25.579Z,98.44
2018-12-02T20:39:58.035Z,98.81
2018-12-02T20:42:30.511Z,98.86
2018-12-02T20:45:02.968Z,98.91
2018-12-02T20:47:35.500Z,98.68
2018-12-02T20:50:12.976Z,98.67
2018-12-02T20:52:45.507Z,98.47
2018-12-02T20:55:28.617Z,98.07
2018-12-02T20:58:03.497Z,98.31
2018-12-02T21:00:36.073Z,97.86
2018-12-02T21:03:29.876Z,97.48
2018-12-02T21:06:24.694Z,97.27
2018-12-02T21:08:57.387Z,96.92
2018-12-02T21:11:30.171Z,96.87
2018-12-02T21:14:02.698Z,96.78
2018-12-02T21:16:35.099Z,96.66
2018-12-02T21:19:07.722Z,96.65
2018-12-02T21:21:40.118Z,96.59
2018-12-02T21:24:15.443Z,96.88
2018-12-02T21:26:47.896Z,97.08
2018-12-02T21:29:20.343Z,97.18
2018-12-02T21:31:52.787Z,97.73
2018-12-02T21:34:25.378Z,97.86
2018-12-02T21:36:57.940Z,97.89
2018-12-02T21:39:30.527Z,98.05
2018-12-02T21:42:03.062Z,98.31
2018-12-02T21:44:36.599Z,98.27
2018-12-02T21:47:09.110Z,98.42
2018-12-02T21:49:41.582Z,98.43
2018-12-02T21:52:14.211Z,98.33
2018-12-02T21:54:46.611Z,98.50
2018-12-02T21:57:19.134Z,98.75
2018-12-02T21:59:52.484Z,98.93
2018-12-02T22:02:25.078Z,99.06
2018-12-02T22:04:57.462Z,98.97
2018-12-02T22:07:29.990Z,99.08
2018-12-02T22:10:02.433Z,99.25
2018-12-02T22:12:35.156Z,99.31
2018-12-02T22:15:08.612Z,99.39
2018-12-02T22:17:41.292Z,99.80
2018-12-02T22:20:15.571Z,99.98
2018-12-02T22:22:48.011Z,100.00
2018-12-02T22:25:24.611Z,100.00
2018-12-02T22:27:58.408Z,100.00
2018-12-02T22:30:30.869Z,100.00
2018-12-02T22:33:03.306Z,100.00
2018-12-02T22:35:36.115Z,100.00
2018-12-02T22:38:09.238Z,100.00
2018-12-02T22:40:41.706Z,99.98
2018-12-02T22:43:14.264Z,99.99
2018-12-02T22:45:46.899Z,100.00
2018-12-02T22:48:19.596Z,100.00
2018-12-02T22:50:52.121Z,100.00
2018-12-02T22:53:24.660Z,100.00
2018-12-02T22:55:57.562Z,100.00
2018-12-02T22:58:29.983Z,100.00
2018-12-02T23:01:19.349Z,100.00
2018-12-02T23:03:52.555Z,100.00
2018-12-02T23:06:25.317Z,100.00
2018-12-02T23:08:57.941Z,100.00
2018-12-02T23:11:30.451Z,100.00
2018-12-02T23:14:02.877Z,100.00
2018-12-02T23:16:35.323Z,100.00
2018-12-02T23:19:08.309Z,100.00
2018-12-02T23:21:40.863Z,100.00
2018-12-02T23:24:13.398Z,100.00
2018-12-02T23:26:45.864Z,100.00
2018-12-02T23:29:18.222Z,100.00
2018-12-02T23:31:50.708Z,100.00
2018-12-02T23:34:24.058Z,100.00
2018-12-02T23:36:56.595Z,100.00
2018-12-02T23:39:29.158Z,100.00
2018-12-02T23:42:01.682Z,100.00
2018-12-02T23:44:34.171Z,100.00
2018-12-02T23:47:07.082Z,100.00
2018-12-02T23:49:39.505Z,100.00
2018-12-02T23:52:11.998Z,100.00
2018-12-02T23:54:44.425Z,100.00
2018-12-02T23:57:17.009Z,100.00
